createdAt,value
2023-01-28T00:01:46.517Z,0.46
2023-01-28T00:04:48.758Z,0.36
2023-01-28T00:07:51.347Z,0.34
2023-01-28T00:10:52.817Z,0.45
2023-01-28T00:13:55.083Z,0.46
2023-01-28T00:16:56.609Z,0.53
2023-01-28T00:19:58.772Z,0.50
2023-01-28T00:23:00.317Z,0.49
2023-01-28T00:26:04.274Z,0.40
2023-01-28T00:29:06.595Z,0.43
2023-01-28T00:32:08.259Z,0.49
2023-01-28T00:35:09.926Z,0.49
2023-01-28T00:38:11.545Z,0.52
2023-01-28T00:41:16.351Z,0.58
2023-01-28T00:44:18.450Z,0.65
2023-01-28T00:47:19.976Z,0.67
2023-01-28T00:50:21.723Z,0.64
2023-01-28T00:53:23.203Z,0.58
2023-01-28T00:56:25.232Z,0.51
2023-01-28T00:59:46.671Z,0.44
2023-01-28T01:02:48.178Z,0.37
2023-01-28T01:05:49.713Z,0.43
2023-01-28T01:08:51.662Z,0.45
2023-01-28T01:11:53.178Z,0.45
2023-01-28T01:14:54.809Z,0.50
2023-01-28T01:17:57.120Z,0.54
2023-01-28T01:21:01.696Z,0.40
2023-01-28T01:24:03.400Z,0.46
2023-01-28T01:27:06.052Z,0.46
2023-01-28T01:30:09.357Z,0.44
2023-01-28T01:33:10.864Z,0.44
2023-01-28T01:36:14.301Z,0.46
2023-01-28T01:39:16.080Z,0.42
2023-01-28T01:42:17.629Z,0.43
2023-01-28T01:45:19.295Z,0.40
2023-01-28T01:48:35.117Z,0.34
2023-01-28T01:51:37.351Z,0.39
2023-01-28T01:54:43.093Z,0.46
2023-01-28T01:57:47.365Z,0.56
2023-01-28T02:00:48.964Z,0.65
2023-01-28T02:03:50.559Z,0.67
2023-01-28T02:06:52.771Z,0.75
2023-01-28T02:09:54.845Z,0.77
2023-01-28T02:12:59.122Z,0.76
2023-01-28T02:16:03.190Z,0.77
2023-01-28T02:19:06.282Z,0.67
2023-01-28T02:22:29.290Z,0.65
2023-01-28T02:25:37.082Z,0.72
2023-01-28T02:28:51.685Z,0.71
2023-01-28T02:32:23.294Z,0.67
2023-01-28T02:35:29.084Z,0.70
2023-01-28T02:38:39.664Z,0.73
2023-01-28T02:41:58.158Z,0.73
2023-01-28T02:44:59.747Z,0.67
2023-01-28T02:48:01.660Z,0.71
2023-01-28T02:51:18.299Z,0.61
2023-01-28T02:54:38.588Z,0.56
2023-01-28T02:57:49.621Z,0.60
2023-01-28T03:01:01.835Z,0.68
2023-01-28T03:04:29.148Z,0.67
2023-01-28T03:07:35.270Z,0.58
2023-01-28T03:10:37.785Z,0.52
2023-01-28T03:13:59.071Z,0.65
2023-01-28T03:17:21.216Z,0.70
2023-01-28T03:20:45.443Z,0.60
2023-01-28T03:24:36.743Z,0.51
2023-01-28T03:28:07.224Z,0.57
2023-01-28T03:31:37.055Z,0.65
2023-01-28T03:34:58.168Z,0.68
2023-01-28T03:38:17.959Z,0.70
2023-01-28T03:41:22.420Z,0.74
2023-01-28T03:44:43.908Z,0.68
2023-01-28T03:47:45.513Z,0.63
2023-01-28T03:50:48.132Z,0.67
2023-01-28T03:53:49.668Z,0.72
2023-01-28T03:56:51.202Z,0.79
2023-01-28T03:59:53.561Z,0.80
2023-01-28T04:02:56.343Z,0.73
2023-01-28T04:06:05.638Z,0.83
2023-01-28T04:09:27.603Z,0.87
2023-01-28T04:12:54.229Z,0.73
2023-01-28T04:15:55.968Z,0.74
2023-01-28T04:18:58.787Z,0.78
2023-01-28T04:22:00.618Z,0.77
2023-01-28T04:25:02.477Z,0.66
2023-01-28T04:28:04.376Z,0.66
2023-01-28T04:31:06.535Z,0.73
2023-01-28T04:34:20.430Z,0.71
2023-01-28T04:37:44.162Z,0.71
2023-01-28T04:41:02.728Z,0.75
2023-01-28T04:44:07.791Z,0.83
2023-01-28T04:47:33.237Z,0.83
2023-01-28T04:50:50.686Z,0.78
2023-01-28T04:54:12.479Z,0.71
2023-01-28T04:57:14.057Z,0.66
2023-01-28T05:00:16.233Z,0.56
2023-01-28T05:03:18.152Z,0.61
2023-01-28T05:06:20.193Z,0.66
2023-01-28T05:09:22.264Z,0.69
2023-01-28T05:12:25.856Z,0.69
2023-01-28T05:15:29.202Z,0.75
2023-01-28T05:18:31.881Z,0.76
2023-01-28T05:21:41.469Z,0.77
2023-01-28T05:24:52.554Z,0.81
2023-01-28T05:27:54.394Z,0.76
2023-01-28T05:30:55.937Z,0.79
2023-01-28T05:33:57.579Z,0.76
2023-01-28T05:36:59.081Z,0.80
2023-01-28T05:40:06.731Z,0.79
2023-01-28T05:43:08.191Z,0.82
2023-01-28T05:46:16.087Z,0.75
2023-01-28T05:49:36.145Z,0.73
2023-01-28T05:53:06.765Z,0.79
2023-01-28T05:56:09.371Z,0.86
2023-01-28T05:59:12.408Z,0.87
2023-01-28T06:02:16.483Z,0.83
2023-01-28T06:05:18.827Z,0.76
2023-01-28T06:08:20.423Z,0.51
2023-01-28T06:11:22.507Z,0.45
2023-01-28T06:14:27.018Z,0.58
2023-01-28T06:18:00.833Z,0.47
2023-01-28T06:21:05.279Z,0.48
2023-01-28T06:24:06.979Z,0.51
2023-01-28T06:27:08.701Z,0.51
2023-01-28T06:30:11.176Z,0.58
2023-01-28T06:33:12.732Z,0.70
2023-01-28T06:36:14.208Z,0.65
2023-01-28T06:39:15.769Z,0.71
2023-01-28T06:42:17.273Z,0.80
2023-01-28T06:45:18.848Z,0.80
2023-01-28T06:48:21.123Z,0.73
2023-01-28T06:51:22.599Z,0.77
2023-01-28T06:54:24.167Z,0.76
2023-01-28T06:57:25.619Z,0.77
2023-01-28T07:00:27.162Z,0.71
2023-01-28T07:03:28.719Z,0.76
2023-01-28T07:06:30.251Z,0.73
2023-01-28T07:09:31.759Z,0.61
2023-01-28T07:12:33.271Z,0.55
2023-01-28T07:15:34.859Z,0.47
2023-01-28T07:18:36.416Z,0.49
2023-01-28T07:21:38.021Z,0.60
2023-01-28T07:24:39.622Z,0.52
2023-01-28T07:27:47.425Z,0.51
2023-01-28T07:30:53.727Z,0.51
2023-01-28T07:33:55.443Z,0.50
2023-01-28T07:36:57.568Z,0.50
2023-01-28T07:39:59.169Z,0.49
2023-01-28T07:43:00.934Z,0.44
2023-01-28T07:46:10.287Z,0.44
2023-01-28T07:49:11.938Z,0.54
2023-01-28T07:52:13.581Z,0.52
2023-01-28T07:55:15.482Z,0.55
2023-01-28T07:58:17.144Z,0.65
2023-01-28T08:01:19.607Z,0.69
2023-01-28T08:04:21.164Z,0.73
2023-01-28T08:07:48.794Z,0.71
2023-01-28T08:10:50.653Z,0.83
2023-01-28T08:13:52.153Z,0.87
2023-01-28T08:16:53.824Z,0.91
2023-01-28T08:19:55.446Z,1.01
2023-01-28T08:23:06.051Z,1.00
2023-01-28T08:26:07.667Z,1.12
2023-01-28T08:29:09.461Z,1.26
2023-01-28T08:32:11.788Z,1.31
2023-01-28T08:35:13.309Z,1.27
2023-01-28T08:38:18.045Z,1.16
2023-01-28T08:41:29.374Z,1.18
2023-01-28T08:44:30.877Z,1.23
2023-01-28T08:47:32.758Z,1.26
2023-01-28T08:50:39.013Z,1.27
2023-01-28T08:53:40.497Z,1.14
2023-01-28T08:56:44.953Z,1.10
2023-01-28T08:59:46.529Z,1.16
2023-01-28T09:02:51.246Z,1.12
2023-01-28T09:05:52.816Z,1.19
2023-01-28T09:09:00.153Z,1.13
2023-01-28T09:12:01.675Z,1.18
2023-01-28T09:15:04.080Z,1.22
2023-01-28T09:18:05.737Z,1.21
2023-01-28T09:21:08.026Z,1.19
2023-01-28T09:24:12.321Z,1.28
2023-01-28T09:27:14.049Z,1.38
2023-01-28T09:30:16.071Z,1.33
2023-01-28T09:33:17.956Z,1.38
2023-01-28T09:36:19.567Z,1.32
2023-01-28T09:39:21.191Z,1.34
2023-01-28T09:42:44.495Z,1.48
2023-01-28T09:45:49.063Z,1.56
2023-01-28T09:48:53.473Z,1.65
2023-01-28T09:51:56.183Z,1.71
2023-01-28T09:55:04.885Z,1.67
2023-01-28T09:58:12.111Z,1.62
2023-01-28T10:01:38.907Z,1.63
2023-01-28T10:05:13.990Z,1.60
2023-01-28T10:08:44.984Z,1.54
2023-01-28T10:11:49.220Z,1.52
2023-01-28T10:15:08.722Z,1.57
2023-01-28T10:18:24.192Z,1.63
2023-01-28T10:21:33.472Z,1.58
2023-01-28T10:24:39.606Z,1.62
2023-01-28T10:27:42.116Z,1.80
2023-01-28T10:30:45.179Z,1.91
2023-01-28T10:33:46.754Z,2.02
2023-01-28T10:36:49.976Z,2.08
2023-01-28T10:39:56.377Z,2.19
2023-01-28T10:42:57.853Z,2.21
2023-01-28T10:46:16.445Z,2.34
2023-01-28T10:49:30.125Z,2.51
2023-01-28T10:52:31.931Z,2.49
2023-01-28T10:55:52.516Z,2.22
2023-01-28T10:59:04.059Z,2.23
2023-01-28T11:02:22.946Z,2.27
2023-01-28T11:05:27.382Z,2.26
2023-01-28T11:08:31.269Z,2.38
2023-01-28T11:11:32.831Z,2.65
2023-01-28T11:14:34.349Z,2.75
2023-01-28T11:17:38.695Z,2.79
2023-01-28T11:20:51.777Z,3.08
2023-01-28T11:24:04.846Z,3.59
2023-01-28T11:27:16.483Z,4.16
2023-01-28T11:30:26.963Z,4.22
2023-01-28T11:33:33.794Z,4.39
2023-01-28T11:36:35.372Z,4.46
2023-01-28T11:39:36.830Z,4.38
2023-01-28T11:42:38.510Z,4.31
2023-01-28T11:45:47.717Z,4.06
2023-01-28T11:49:30.151Z,3.89
2023-01-28T11:53:05.600Z,3.99
2023-01-28T11:57:05.937Z,3.87
2023-01-28T12:00:27.665Z,3.92
2023-01-28T12:03:47.235Z,4.05
2023-01-28T12:07:10.321Z,4.06
2023-01-28T12:10:36.948Z,4.02
2023-01-28T12:14:07.074Z,4.09
2023-01-28T12:17:16.177Z,4.14
2023-01-28T12:20:50.237Z,3.92
2023-01-28T12:24:19.481Z,3.80
2023-01-28T12:27:58.625Z,3.94
2023-01-28T12:31:30.215Z,3.96
2023-01-28T12:34:44.282Z,3.70
2023-01-28T12:38:09.255Z,3.51
2023-01-28T12:41:18.806Z,3.47
2023-01-28T12:44:31.800Z,3.39
2023-01-28T12:47:40.257Z,3.23
2023-01-28T12:50:48.053Z,3.18
2023-01-28T12:54:13.142Z,3.12
2023-01-28T12:57:21.435Z,3.05
2023-01-28T13:00:30.253Z,2.85
2023-01-28T13:03:41.863Z,2.88
2023-01-28T13:06:53.062Z,2.79
2023-01-28T13:10:22.609Z,2.73
2023-01-28T13:13:34.537Z,2.60
2023-01-28T13:16:38.965Z,2.58
2023-01-28T13:19:42.585Z,2.60
2023-01-28T13:22:45.866Z,2.45
2023-01-28T13:25:53.370Z,2.37
2023-01-28T13:29:09.115Z,2.29
2023-01-28T13:32:33.328Z,2.32
2023-01-28T13:35:40.445Z,2.41
2023-01-28T13:38:42.260Z,2.45
2023-01-28T13:41:46.557Z,2.50
2023-01-28T13:44:48.279Z,2.50
2023-01-28T13:47:59.865Z,2.48
2023-01-28T13:51:03.078Z,2.47
2023-01-28T13:54:08.501Z,2.45
2023-01-28T13:57:34.507Z,2.31
2023-01-28T14:00:45.658Z,2.21
2023-01-28T14:04:06.290Z,2.26
2023-01-28T14:07:37.183Z,2.18
2023-01-28T14:11:06.285Z,2.19
2023-01-28T14:14:45.561Z,2.24
2023-01-28T14:17:50.397Z,2.26
2023-01-28T14:20:54.349Z,2.20
2023-01-28T14:23:58.602Z,2.18
2023-01-28T14:27:22.641Z,2.29
2023-01-28T14:30:36.096Z,2.40
2023-01-28T14:33:38.502Z,2.27
2023-01-28T14:36:44.283Z,2.32
2023-01-28T14:39:52.834Z,2.26
2023-01-28T14:42:56.379Z,2.19
2023-01-28T14:46:24.171Z,2.17
2023-01-28T14:49:51.507Z,2.02
2023-01-28T14:53:11.598Z,2.05
2023-01-28T14:56:24.695Z,2.37
2023-01-28T14:59:30.379Z,2.56
2023-01-28T15:02:32.142Z,2.25
2023-01-28T15:05:33.980Z,2.22
2023-01-28T15:08:35.992Z,2.18
2023-01-28T15:11:41.352Z,2.13
2023-01-28T15:14:44.376Z,2.08
2023-01-28T15:17:47.657Z,2.06
2023-01-28T15:20:52.568Z,2.13
2023-01-28T15:23:58.134Z,2.07
2023-01-28T15:27:00.053Z,1.99
2023-01-28T15:30:02.483Z,1.96
2023-01-28T15:33:14.808Z,1.90
2023-01-28T15:36:16.461Z,1.94
2023-01-28T15:39:21.862Z,1.89
2023-01-28T15:42:29.376Z,1.96
2023-01-28T15:45:32.766Z,1.97
2023-01-28T15:48:35.399Z,1.96
2023-01-28T15:51:37.046Z,1.97
2023-01-28T15:54:45.731Z,1.98
2023-01-28T15:57:47.212Z,1.95
2023-01-28T16:00:49.307Z,1.93
2023-01-28T16:04:02.782Z,1.99
2023-01-28T16:07:05.353Z,1.93
2023-01-28T16:10:07.291Z,1.95
2023-01-28T16:13:21.490Z,1.90
2023-01-28T16:16:35.703Z,1.90
2023-01-28T16:19:38.653Z,1.97
2023-01-28T16:22:43.455Z,1.97
2023-01-28T16:25:44.990Z,1.89
2023-01-28T16:28:46.951Z,1.86
2023-01-28T16:31:48.552Z,1.93
2023-01-28T16:34:50.054Z,2.02
2023-01-28T16:37:51.796Z,2.01
2023-01-28T16:40:53.384Z,2.07
2023-01-28T16:43:54.933Z,2.01
2023-01-28T16:46:56.555Z,2.03
2023-01-28T16:49:58.250Z,2.03
2023-01-28T16:53:00.596Z,1.99
2023-01-28T16:56:02.523Z,1.94
2023-01-28T16:59:04.102Z,1.92
2023-01-28T17:02:05.789Z,2.01
2023-01-28T17:05:07.574Z,1.98
2023-01-28T17:08:09.187Z,1.98
2023-01-28T17:11:10.725Z,1.99
2023-01-28T17:14:12.278Z,2.03
2023-01-28T17:17:13.769Z,2.05
2023-01-28T17:20:15.338Z,2.05
2023-01-28T17:23:19.351Z,2.02
2023-01-28T17:26:20.931Z,2.02
2023-01-28T17:29:22.542Z,2.01
2023-01-28T17:32:24.054Z,1.99
2023-01-28T17:35:25.635Z,1.96
2023-01-28T17:38:27.285Z,1.97
2023-01-28T17:41:28.797Z,1.98
2023-01-28T17:44:30.390Z,1.95
2023-01-28T17:47:31.962Z,1.98
2023-01-28T17:50:33.628Z,1.90
2023-01-28T17:53:35.220Z,1.88
2023-01-28T17:56:38.251Z,1.92
2023-01-28T17:59:39.995Z,1.90
2023-01-28T18:02:41.450Z,1.91
2023-01-28T18:05:43.362Z,1.84
2023-01-28T18:08:45.674Z,1.82
2023-01-28T18:11:47.516Z,1.85
2023-01-28T18:14:49.014Z,1.88
2023-01-28T18:17:53.776Z,1.88
2023-01-28T18:21:00.232Z,1.89
2023-01-28T18:24:02.875Z,1.87
2023-01-28T18:27:04.414Z,1.89
2023-01-28T18:30:06.369Z,1.91
2023-01-28T18:33:08.762Z,1.87
2023-01-28T18:36:10.462Z,1.81
2023-01-28T18:39:13.619Z,1.88
2023-01-28T18:42:15.248Z,1.96
2023-01-28T18:45:17.454Z,1.99
2023-01-28T18:48:19.647Z,2.01
2023-01-28T18:51:29.980Z,1.95
2023-01-28T18:54:32.293Z,1.87
2023-01-28T18:57:33.893Z,1.88
2023-01-28T19:00:35.371Z,1.84
2023-01-28T19:03:38.165Z,1.82
2023-01-28T19:06:39.891Z,1.85
2023-01-28T19:09:51.401Z,1.88
2023-01-28T19:12:56.276Z,1.82
2023-01-28T19:16:01.951Z,1.88
2023-01-28T19:19:04.369Z,1.90
2023-01-28T19:22:06.897Z,1.92
2023-01-28T19:25:09.038Z,1.97
2023-01-28T19:28:10.692Z,1.91
2023-01-28T19:31:12.300Z,1.90
2023-01-28T19:34:15.908Z,1.81
2023-01-28T19:37:20.504Z,1.86
2023-01-28T19:40:22.283Z,1.83
2023-01-28T19:43:23.838Z,1.80
2023-01-28T19:46:26.171Z,1.87
2023-01-28T19:49:29.301Z,1.90
2023-01-28T19:52:31.606Z,1.89
2023-01-28T19:55:33.085Z,1.87
2023-01-28T19:58:35.778Z,1.90
2023-01-28T20:01:37.373Z,1.89
2023-01-28T20:04:47.483Z,1.81
2023-01-28T20:07:56.517Z,1.88
2023-01-28T20:11:12.402Z,1.87
2023-01-28T20:14:14.982Z,1.92
2023-01-28T20:17:16.711Z,1.93
2023-01-28T20:20:18.327Z,1.89
2023-01-28T20:23:19.893Z,1.98
2023-01-28T20:26:24.880Z,1.90
2023-01-28T20:29:27.039Z,1.95
2023-01-28T20:32:29.180Z,2.00
2023-01-28T20:35:30.720Z,2.04
2023-01-28T20:38:37.138Z,2.02
2023-01-28T20:41:38.705Z,1.88
2023-01-28T20:44:40.759Z,1.92
2023-01-28T20:47:42.287Z,2.01
2023-01-28T20:50:43.849Z,2.01
2023-01-28T20:53:46.249Z,1.98
2023-01-28T20:56:51.339Z,1.97
2023-01-28T20:59:52.930Z,1.94
2023-01-28T21:02:54.396Z,1.99
2023-01-28T21:05:56.156Z,2.01
2023-01-28T21:08:58.279Z,2.04
2023-01-28T21:12:00.018Z,2.07
2023-01-28T21:15:01.785Z,2.07
2023-01-28T21:18:04.042Z,2.04
2023-01-28T21:21:18.358Z,1.98
2023-01-28T21:24:19.866Z,1.92
2023-01-28T21:27:21.437Z,1.87
2023-01-28T21:30:26.546Z,1.84
2023-01-28T21:33:30.786Z,1.81
2023-01-28T21:36:34.288Z,1.88
2023-01-28T21:39:35.821Z,1.88
2023-01-28T21:42:37.353Z,1.90
2023-01-28T21:45:39.032Z,1.85
2023-01-28T21:48:40.562Z,1.91
2023-01-28T21:51:50.628Z,1.93
2023-01-28T21:54:52.566Z,1.95
2023-01-28T21:58:14.025Z,1.94
2023-01-28T22:01:15.766Z,1.94
2023-01-28T22:04:17.384Z,1.91
2023-01-28T22:07:20.090Z,1.86
2023-01-28T22:10:22.031Z,1.69
2023-01-28T22:13:23.607Z,1.67
2023-01-28T22:16:25.278Z,1.72
2023-01-28T22:19:26.832Z,1.71
2023-01-28T22:22:28.379Z,1.76
2023-01-28T22:25:29.992Z,1.76
2023-01-28T22:28:31.551Z,1.73
2023-01-28T22:31:33.417Z,1.77
2023-01-28T22:38:16.851Z,1.73
2023-01-28T22:41:22.676Z,1.71
2023-01-28T22:44:24.345Z,1.67
2023-01-28T22:47:25.763Z,1.70
2023-01-28T22:50:27.345Z,1.72
2023-01-28T22:53:29.211Z,1.78
2023-01-28T22:56:31.211Z,1.73
2023-01-28T22:59:32.738Z,1.79
2023-01-28T23:02:34.263Z,1.79
2023-01-28T23:05:36.568Z,1.76
2023-01-28T23:08:38.122Z,1.75
2023-01-28T23:11:39.654Z,1.73
2023-01-28T23:14:59.628Z,1.84
2023-01-28T23:18:20.016Z,1.88
2023-01-28T23:21:43.004Z,1.83
2023-01-28T23:24:44.570Z,1.74
2023-01-28T23:27:46.309Z,1.69
2023-01-28T23:30:47.929Z,1.65
2023-01-28T23:33:49.526Z,1.71
2023-01-28T23:36:51.437Z,1.76
2023-01-28T23:39:52.937Z,1.78
2023-01-28T23:42:55.366Z,1.77
2023-01-28T23:45:56.846Z,1.85
2023-01-28T23:48:58.337Z,1.79
2023-01-28T23:52:00.953Z,1.73
2023-01-28T23:55:02.855Z,1.69
2023-01-28T23:58:04.976Z,1.65
